Time;durP1;ratioP1;P1;durP2;ratioP2;P2;SDS_P1;SDS_P2;PMS_P1;PMS_P2;Temp;Humidity;BMP_temperature;BMP_pressure;BME280_temperature;BME280_humidity;BME280_pressure;Samples;Min_cycle;Max_cycle;Signal;HPM_P1;HPM_P2
2022/06/27 07:04:05;;;;;;;2.47;2.28;;;;;;;;;;12401496;22;10764094;-83
2022/06/27 07:09:12;;;;;;;2.80;1.90;;;;;;;;;;12756442;23;20025;-83
2022/06/27 07:14:16;;;;;;;3.83;2.50;;;;;;;;;;12756697;23;20002;-83
2022/06/27 07:19:18;;;;;;;2.47;2.22;;;;;;;;;;12751457;23;20508;-81
2022/06/27 07:24:19;;;;;;;3.13;2.83;;;;;;;;;;12751475;23;20052;-81
2022/06/27 07:29:20;;;;;;;2.70;2.40;;;;;;;;;;12755276;23;20013;-83
2022/06/27 07:34:22;;;;;;;3.10;2.60;;;;;;;;;;12756101;23;20421;-84
2022/06/27 07:39:23;;;;;;;5.43;3.88;;;;;;;;;;12758332;23;20001;-83
2022/06/27 07:44:25;;;;;;;5.22;4.68;;;;;;;;;;12759606;23;20005;-84
2022/06/27 07:49:26;;;;;;;6.13;4.45;;;;;;;;;;12756738;23;20009;-84
2022/06/27 07:54:27;;;;;;;5.85;4.20;;;;;;;;;;12755715;23;20400;-83
2022/06/27 07:59:29;;;;;;;4.20;3.70;;;;;;;;;;12765486;23;20004;-83
2022/06/27 08:04:47;;;;;;;5.03;3.60;;;;;;;;;;12769223;23;20013;-83
2022/06/27 08:15:11;;;;;;;6.28;3.70;;;;;;;;;;12763262;23;20501;-85
2022/06/27 08:20:13;;;;;;;7.50;4.57;;;;;;;;;;12759291;23;20064;-84
2022/06/27 08:36:51;;;;;;;5.22;4.38;;;;;;;;;;12771910;23;20009;-83
2022/06/27 08:41:52;;;;;;;7.78;4.40;;;;;;;;;;12770760;23;20060;-85
2022/06/27 08:46:54;;;;;;;5.07;4.57;;;;;;;;;;12757212;23;20009;-85
2022/06/27 08:51:55;;;;;;;5.82;4.53;;;;;;;;;;12752916;23;20007;-84
2022/06/27 08:56:56;;;;;;;6.80;4.55;;;;;;;;;;12757915;23;20012;-84
2022/06/27 09:01:58;;;;;;;8.27;5.03;;;;;;;;;;12755639;23;20013;-82
2022/06/27 09:06:59;;;;;;;5.63;4.50;;;;;;;;;;12755680;23;20069;-81
2022/06/27 09:12:05;;;;;;;6.07;5.40;;;;;;;;;;12753791;23;20013;-81
2022/06/27 09:17:09;;;;;;;7.80;5.10;;;;;;;;;;12751756;23;20009;-80
2022/06/27 09:22:14;;;;;;;5.90;4.60;;;;;;;;;;12773218;23;20029;-82
2022/06/27 09:27:35;;;;;;;7.25;4.90;;;;;;;;;;12755060;23;20342;-85
2022/06/27 09:32:36;;;;;;;4.93;4.22;;;;;;;;;;12755105;23;20002;-83
2022/06/27 09:37:59;;;;;;;5.32;3.95;;;;;;;;;;12756551;23;20319;-82
2022/06/27 09:43:16;;;;;;;7.25;4.50;;;;;;;;;;12753761;23;20006;-82
2022/06/27 09:48:34;;;;;;;8.07;4.28;;;;;;;;;;12756647;23;20036;-82
2022/06/27 09:53:36;;;;;;;5.63;4.43;;;;;;;;;;12754614;23;20085;-82
2022/06/27 09:58:48;;;;;;;6.88;4.20;;;;;;;;;;12756133;23;20011;-83
2022/06/27 10:03:49;;;;;;;4.60;4.20;;;;;;;;;;12764294;23;20000;-82
2022/06/27 10:09:00;;;;;;;5.32;4.82;;;;;;;;;;12775958;23;19989;-83
2022/06/27 10:14:11;;;;;;;5.32;4.88;;;;;;;;;;12782648;23;19994;-81
2022/06/27 10:19:15;;;;;;;5.65;5.00;;;;;;;;;;12792033;23;20000;-85
2022/06/27 10:24:19;;;;;;;5.95;5.18;;;;;;;;;;12791691;23;20004;-83
2022/06/27 10:29:29;;;;;;;5.50;5.00;;;;;;;;;;12781943;23;20006;-82
2022/06/27 10:34:39;;;;;;;7.35;5.70;;;;;;;;;;12770009;23;20002;-84
2022/06/27 10:39:50;;;;;;;6.03;5.47;;;;;;;;;;12754368;23;20056;-83
2022/06/27 10:44:51;;;;;;;5.93;5.43;;;;;;;;;;12758077;23;20085;-84
2022/06/27 10:50:15;;;;;;;6.22;5.43;;;;;;;;;;12755874;23;20014;-84
2022/06/27 10:55:42;;;;;;;7.53;5.32;;;;;;;;;;12758763;23;20040;-84
2022/06/27 11:00:55;;;;;;;5.70;5.20;;;;;;;;;;12755943;23;20001;-85
2022/06/27 11:06:04;;;;;;;5.65;5.03;;;;;;;;;;12784346;23;20081;-84
2022/06/27 11:11:08;;;;;;;8.43;7.57;;;;;;;;;;12779827;23;20069;-84
2022/06/27 11:16:17;;;;;;;10.32;7.20;;;;;;;;;;12790982;23;20018;-82
2022/06/27 11:21:19;;;;;;;6.97;6.28;;;;;;;;;;12784817;23;20036;-82
2022/06/27 11:26:21;;;;;;;6.50;5.90;;;;;;;;;;12769486;23;20382;-82
2022/06/27 11:36:42;;;;;;;5.22;4.72;;;;;;;;;;12776125;23;20446;-84
2022/06/27 11:41:44;;;;;;;6.05;5.18;;;;;;;;;;12762056;23;20005;-83
2022/06/27 11:46:45;;;;;;;5.40;4.90;;;;;;;;;;12758983;23;20025;-84
2022/06/27 11:51:50;;;;;;;5.80;5.30;;;;;;;;;;12777885;23;20032;-87
2022/06/27 11:56:55;;;;;;;5.10;4.60;;;;;;;;;;12768704;23;20089;-86
2022/06/27 12:01:57;;;;;;;6.05;5.40;;;;;;;;;;12766504;23;20008;-86
2022/06/27 12:07:07;;;;;;;5.10;4.60;;;;;;;;;;12767213;23;20032;-85
2022/06/27 12:12:08;;;;;;;6.00;4.75;;;;;;;;;;12774289;23;20041;-84
2022/06/27 12:17:09;;;;;;;5.80;4.72;;;;;;;;;;12763395;23;20006;-84
2022/06/27 12:22:18;;;;;;;5.32;4.43;;;;;;;;;;12771895;23;20001;-84
2022/06/27 12:27:19;;;;;;;5.90;4.00;;;;;;;;;;12769486;23;20087;-84
2022/06/27 12:32:20;;;;;;;4.78;4.28;;;;;;;;;;12763663;23;20062;-83
2022/06/27 12:37:21;;;;;;;7.57;5.80;;;;;;;;;;12760634;23;20050;-83
2022/06/27 12:42:22;;;;;;;6.35;5.75;;;;;;;;;;12762856;23;20429;-85
2022/06/27 12:47:23;;;;;;;5.97;5.25;;;;;;;;;;12776015;23;20001;-85
2022/06/27 12:52:25;;;;;;;6.20;5.32;;;;;;;;;;12765391;23;20066;-85
2022/06/27 12:57:52;;;;;;;8.40;5.22;;;;;;;;;;12775783;23;20005;-84
2022/06/27 13:02:56;;;;;;;7.57;5.20;;;;;;;;;;12775949;23;20009;-84
2022/06/27 13:07:57;;;;;;;7.03;6.15;;;;;;;;;;12776221;23;20033;-85
2022/06/27 13:12:58;;;;;;;6.80;6.15;;;;;;;;;;12777226;23;20025;-84
2022/06/27 13:17:59;;;;;;;6.40;5.60;;;;;;;;;;12775654;23;20009;-84
2022/06/27 13:23:01;;;;;;;6.25;5.70;;;;;;;;;;12766793;23;20032;-83
2022/06/27 13:28:02;;;;;;;6.28;5.30;;;;;;;;;;12766582;23;20002;-83
2022/06/27 13:33:03;;;;;;;6.20;5.60;;;;;;;;;;12773346;23;20032;-84
2022/06/27 13:38:04;;;;;;;6.32;5.50;;;;;;;;;;12772852;23;20012;-83
2022/06/27 13:43:06;;;;;;;5.30;4.80;;;;;;;;;;12777326;23;20002;-84
2022/06/27 13:48:08;;;;;;;6.22;5.63;;;;;;;;;;12766769;23;20053;-84
2022/06/27 13:53:09;;;;;;;5.63;5.10;;;;;;;;;;12769120;23;20025;-84
2022/06/27 13:58:10;;;;;;;6.47;5.88;;;;;;;;;;12776461;23;20008;-84
2022/06/27 14:03:12;;;;;;;9.95;8.95;;;;;;;;;;12766598;23;20097;-84
2022/06/27 14:08:13;;;;;;;6.82;6.22;;;;;;;;;;12758934;23;20006;-84
2022/06/27 14:13:14;;;;;;;9.98;9.07;;;;;;;;;;12762784;23;20009;-83
2022/06/27 14:18:16;;;;;;;9.63;8.63;;;;;;;;;;12771226;23;20319;-83
2022/06/27 14:23:18;;;;;;;8.57;7.78;;;;;;;;;;12777602;23;20013;-83
2022/06/27 14:28:19;;;;;;;15.43;13.88;;;;;;;;;;12765834;23;20006;-84
2022/06/27 14:33:20;;;;;;;10.18;9.18;;;;;;;;;;12764184;23;20002;-84
2022/06/27 14:38:21;;;;;;;10.95;9.85;;;;;;;;;;12769214;23;20059;-85
2022/06/27 14:43:22;;;;;;;11.23;10.23;;;;;;;;;;12769556;23;20037;-86
2022/06/27 14:48:24;;;;;;;10.75;9.60;;;;;;;;;;12770458;23;20012;-85
2022/06/27 14:53:26;;;;;;;8.90;8.00;;;;;;;;;;12771024;23;20005;-85
2022/06/27 14:58:27;;;;;;;9.05;8.15;;;;;;;;;;12775754;23;20353;-85
2022/06/27 15:03:29;;;;;;;7.60;6.90;;;;;;;;;;12766677;23;19998;-85
2022/06/27 15:08:30;;;;;;;8.50;7.57;;;;;;;;;;12767975;23;20017;-84
2022/06/27 15:13:31;;;;;;;8.05;7.32;;;;;;;;;;12767029;23;20457;-86
2022/06/27 15:18:32;;;;;;;6.57;4.50;;;;;;;;;;12763227;23;20013;-86
2022/06/27 15:23:33;;;;;;;7.03;6.03;;;;;;;;;;12757586;23;20009;-84
2022/06/27 15:28:34;;;;;;;6.75;4.80;;;;;;;;;;12757572;23;20013;-84
2022/06/27 15:33:38;;;;;;;7.72;4.85;;;;;;;;;;12764392;23;20046;-84
2022/06/27 15:38:39;;;;;;;5.22;4.72;;;;;;;;;;12778530;23;20031;-84
2022/06/27 15:43:40;;;;;;;4.78;4.28;;;;;;;;;;12759836;23;20426;-84
2022/06/27 15:48:41;;;;;;;5.93;3.45;;;;;;;;;;12761004;23;20028;-84
2022/06/27 15:53:42;;;;;;;6.82;3.60;;;;;;;;;;12756959;23;20346;-81
2022/06/27 15:58:43;;;;;;;5.15;3.45;;;;;;;;;;12757503;23;20060;-81
2022/06/27 16:03:44;;;;;;;3.80;2.85;;;;;;;;;;12753884;23;19994;-79
2022/06/27 16:08:46;;;;;;;5.60;2.45;;;;;;;;;;12752192;23;20007;-80
2022/06/27 16:13:47;;;;;;;4.75;2.75;;;;;;;;;;12750419;23;20014;-80
2022/06/27 16:18:48;;;;;;;4.68;2.50;;;;;;;;;;12756471;23;20006;-80
2022/06/27 16:24:21;;;;;;;3.80;2.10;;;;;;;;;;12754388;23;20056;-83
2022/06/27 16:30:01;;;;;;;2.95;2.10;;;;;;;;;;12690812;23;20072;-86
2022/06/27 16:35:03;;;;;;;2.42;1.40;;;;;;;;;;12663107;23;20493;-85
2022/06/27 16:40:06;;;;;;;2.30;1.60;;;;;;;;;;12699258;23;20057;-83
2022/06/27 16:51:00;;;;;;;3.25;1.38;;;;;;;;;;12730365;23;20006;-84
2022/06/27 16:56:32;;;;;;;2.38;1.73;;;;;;;;;;12701051;23;20501;-87
2022/06/27 17:01:34;;;;;;;2.78;1.48;;;;;;;;;;12694129;23;20002;-85
2022/06/27 17:06:43;;;;;;;1.67;1.52;;;;;;;;;;12761465;23;20006;-86
2022/06/27 17:12:03;;;;;;;2.47;1.75;;;;;;;;;;12778673;23;20009;-84
2022/06/27 17:17:04;;;;;;;2.13;1.52;;;;;;;;;;12749724;23;20017;-85
2022/06/27 17:22:11;;;;;;;2.70;1.50;;;;;;;;;;12774548;23;19998;-85
2022/06/27 17:27:13;;;;;;;2.13;1.50;;;;;;;;;;12747501;23;20009;-86
2022/06/27 17:32:14;;;;;;;2.85;1.85;;;;;;;;;;12760277;23;20005;-82
2022/06/27 17:37:15;;;;;;;3.03;1.77;;;;;;;;;;12779585;23;20014;-86
2022/06/27 17:48:13;;;;;;;2.20;1.50;;;;;;;;;;12703336;23;20014;-84
2022/06/27 17:53:21;;;;;;;2.03;1.48;;;;;;;;;;12675337;23;20471;-84
2022/06/27 17:58:24;;;;;;;3.20;1.90;;;;;;;;;;12653615;23;20042;-84
2022/06/27 18:03:32;;;;;;;1.85;1.20;;;;;;;;;;12755287;23;20013;-83
2022/06/27 18:08:39;;;;;;;2.65;1.70;;;;;;;;;;12765510;23;20077;-84
2022/06/27 18:13:44;;;;;;;3.72;1.50;;;;;;;;;;12764214;23;20362;-84
2022/06/27 18:18:51;;;;;;;3.20;2.00;;;;;;;;;;12767218;23;20040;-84
2022/06/27 18:23:53;;;;;;;3.20;2.25;;;;;;;;;;12771392;23;20011;-86
2022/06/27 18:29:08;;;;;;;2.25;1.88;;;;;;;;;;12776447;23;20025;-86
2022/06/27 18:34:40;;;;;;;2.92;2.63;;;;;;;;;;12775750;23;20021;-86
2022/06/27 18:39:42;;;;;;;2.42;2.22;;;;;;;;;;12773069;23;20013;-86
2022/06/27 18:44:58;;;;;;;3.03;2.28;;;;;;;;;;12774192;23;20001;-86
2022/06/27 18:50:06;;;;;;;5.22;4.32;;;;;;;;;;12774796;23;20016;-86
2022/06/27 18:55:15;;;;;;;5.20;4.70;;;;;;;;;;12752007;23;20009;-84
2022/06/27 19:01:01;;;;;;;3.97;3.58;;;;;;;;;;12626862;23;20025;-85
2022/06/27 19:16:55;;;;;;;3.17;2.83;;;;;;;;;;12835214;23;20023;-85
2022/06/27 19:22:02;;;;;;;2.95;2.17;;;;;;;;;;12819550;23;20011;-84
